Time;durP1;ratioP1;P1;durP2;ratioP2;P2;SDS_P1;SDS_P2;PMS_P1;PMS_P2;Temp;Humidity;BMP_temperature;BMP_pressure;BME280_temperature;BME280_humidity;BME280_pressure;Samples;Min_cycle;Max_cycle;Signal;HPM_P1;HPM_P2
2022/05/01 00:01:51;;;;;;;10.77;7.50;;;;;;;10.94;66.33;102535.53;5057908;28;20051;-50
2022/05/01 00:04:16;;;;;;;9.63;7.68;;;;;;;10.95;66.30;102533.84;5063838;28;20029;-55
2022/05/01 00:06:42;;;;;;;11.80;8.18;;;;;;;10.91;66.40;102529.31;5060373;28;20476;-55
2022/05/01 00:09:08;;;;;;;12.95;8.25;;;;;;;10.89;66.49;102528.38;5057422;28;20029;-52
2022/05/01 00:11:33;;;;;;;12.75;8.30;;;;;;;10.84;66.47;102528.13;5061052;28;20035;-54
2022/05/01 00:13:58;;;;;;;9.73;7.90;;;;;;;10.87;66.78;102527.41;5069121;28;20040;-55
2022/05/01 00:16:24;;;;;;;10.13;7.75;;;;;;;10.82;66.90;102531.41;5066127;28;20021;-54
2022/05/01 00:18:50;;;;;;;11.25;8.32;;;;;;;10.74;66.88;102519.03;5065744;28;20062;-53
2022/05/01 00:21:15;;;;;;;12.45;8.52;;;;;;;10.79;66.67;102523.53;5060454;28;20366;-53
2022/05/01 00:23:41;;;;;;;12.23;8.70;;;;;;;10.79;66.71;102531.25;5059088;28;20032;-55
2022/05/01 00:26:07;;;;;;;9.57;8.00;;;;;;;10.75;66.87;102514.78;5058362;28;20033;-55
2022/05/01 00:28:35;;;;;;;12.98;8.52;;;;;;;10.75;67.04;102517.34;5058821;28;20043;-54
2022/05/01 00:31:02;;;;;;;12.77;8.55;;;;;;;10.74;67.31;102525.88;5055962;28;20040;-54
2022/05/01 00:36:26;;;;;;;12.07;8.48;;;;;;;10.70;67.39;102524.81;5059079;28;20074;-55
2022/05/01 00:38:53;;;;;;;10.70;8.50;;;;;;;10.71;67.48;102523.13;5063203;28;20370;-54
2022/05/01 00:41:21;;;;;;;11.63;9.13;;;;;;;10.69;67.48;102524.75;5062780;28;20067;-54
2022/05/01 00:44:03;;;;;;;10.93;8.80;;;;;;;10.72;67.14;102519.75;5060112;28;20047;-53
2022/05/01 00:46:30;;;;;;;10.60;8.30;;;;;;;10.69;67.53;102515.31;5061152;28;20043;-52
2022/05/01 00:48:55;;;;;;;11.70;8.63;;;;;;;10.70;67.55;102511.06;5063535;28;20032;-54
2022/05/01 00:51:21;;;;;;;12.35;9.07;;;;;;;10.65;67.38;102505.66;5061337;28;20082;-53
2022/05/01 00:53:48;;;;;;;12.40;8.80;;;;;;;10.62;67.45;102508.09;5061887;28;20055;-55
2022/05/01 00:56:14;;;;;;;14.52;9.18;;;;;;;10.63;67.70;102507.28;5058684;28;20032;-50
2022/05/01 00:58:40;;;;;;;15.27;8.82;;;;;;;10.60;67.61;102509.66;5060304;28;20113;-55
2022/05/01 01:01:06;;;;;;;10.48;8.07;;;;;;;10.58;67.96;102511.28;5064810;28;20397;-53
2022/05/01 01:03:31;;;;;;;13.98;8.90;;;;;;;10.61;67.71;102507.97;5061995;28;20040;-55
2022/05/01 01:05:56;;;;;;;15.07;9.23;;;;;;;10.57;67.76;102512.09;5061987;28;20051;-55
2022/05/01 01:08:22;;;;;;;12.35;9.30;;;;;;;10.54;68.23;102499.06;5061162;28;20068;-54
2022/05/01 01:10:47;;;;;;;15.88;9.43;;;;;;;10.55;68.02;102500.81;5055062;28;20063;-54
2022/05/01 01:13:13;;;;;;;11.35;9.32;;;;;;;10.50;68.29;102499.72;5061980;28;20036;-54
2022/05/01 01:15:38;;;;;;;13.00;9.98;;;;;;;10.53;68.73;102498.97;5060062;28;20495;-54
2022/05/01 01:18:04;;;;;;;11.73;9.05;;;;;;;10.53;68.16;102496.41;5062540;28;20509;-55
2022/05/01 01:20:31;;;;;;;12.25;9.45;;;;;;;10.54;68.67;102505.88;5062673;28;20036;-55
2022/05/01 01:22:58;;;;;;;13.07;9.65;;;;;;;10.50;68.41;102504.84;5061663;28;20029;-55
2022/05/01 01:25:29;;;;;;;12.35;9.80;;;;;;;10.54;68.53;102503.31;5058975;28;20028;-50
2022/05/01 01:27:59;;;;;;;12.45;9.55;;;;;;;10.55;68.43;102515.38;5055284;28;20021;-53
2022/05/01 01:33:10;;;;;;;12.25;9.40;;;;;;;10.54;67.98;102501.63;5060534;28;20710;-55
2022/05/01 01:35:38;;;;;;;13.00;9.68;;;;;;;10.51;68.14;102498.91;5057537;28;20060;-56
2022/05/01 01:38:04;;;;;;;15.00;9.90;;;;;;;10.51;67.94;102503.16;5060217;28;20040;-54
2022/05/01 01:40:58;;;;;;;14.20;10.25;;;;;;;10.59;67.57;102507.91;5060609;28;20048;-55
2022/05/01 01:43:29;;;;;;;12.50;9.30;;;;;;;10.51;68.30;102509.19;5061016;28;20048;-50
2022/05/01 01:45:55;;;;;;;12.32;9.48;;;;;;;10.47;68.62;102504.66;5058902;28;20029;-49
2022/05/01 01:48:23;;;;;;;15.02;10.05;;;;;;;10.43;68.67;102506.22;5063707;28;20495;-50
2022/05/01 01:50:59;;;;;;;13.10;9.23;;;;;;;10.48;68.38;102497.03;5062170;28;20032;-52
2022/05/01 01:53:26;;;;;;;13.43;9.68;;;;;;;10.48;68.16;102504.75;5062602;28;20088;-55
2022/05/01 01:55:52;;;;;;;13.90;9.38;;;;;;;10.42;68.50;102496.69;5060731;28;20437;-55
2022/05/01 01:58:18;;;;;;;11.90;9.82;;;;;;;10.43;68.65;102498.50;5059713;28;20410;-53
2022/05/01 02:00:44;;;;;;;12.70;9.77;;;;;;;10.44;68.82;102495.13;5059879;28;20051;-54
2022/05/01 02:03:09;;;;;;;12.75;10.10;;;;;;;10.42;68.77;102493.25;5058947;28;20036;-55
2022/05/01 02:05:35;;;;;;;13.18;9.60;;;;;;;10.43;68.21;102497.56;5059165;28;20032;-53
2022/05/01 02:08:01;;;;;;;12.65;9.38;;;;;;;10.42;68.32;102490.66;5056637;28;20432;-54
2022/05/01 02:10:27;;;;;;;14.52;9.20;;;;;;;10.42;68.16;102485.53;5054638;28;20485;-53
2022/05/01 02:12:54;;;;;;;13.98;9.57;;;;;;;10.35;67.98;102489.44;5058692;28;20078;-55
2022/05/01 02:15:20;;;;;;;11.95;8.95;;;;;;;10.38;68.07;102491.31;5056951;28;20040;-55
2022/05/01 02:17:48;;;;;;;12.85;9.30;;;;;;;10.36;68.26;102493.78;5057770;28;20024;-49
2022/05/01 02:20:13;;;;;;;11.43;9.38;;;;;;;10.33;68.42;102491.06;5060217;28;20041;-55
2022/05/01 02:22:42;;;;;;;12.85;9.50;;;;;;;10.35;68.45;102493.72;5057197;28;20059;-48
2022/05/01 02:25:09;;;;;;;13.95;9.20;;;;;;;10.30;68.37;102490.00;5061956;28;20056;-51
2022/05/01 02:27:35;;;;;;;13.13;9.60;;;;;;;10.29;68.70;102491.69;5056588;28;20078;-54
2022/05/01 02:30:00;;;;;;;13.52;9.10;;;;;;;10.30;68.57;102492.56;5059054;28;20028;-54
2022/05/01 02:32:26;;;;;;;13.95;9.32;;;;;;;10.27;68.77;102484.72;5059559;28;20028;-53
2022/05/01 02:34:51;;;;;;;12.02;9.77;;;;;;;10.30;68.44;102480.59;5057214;28;20037;-54
2022/05/01 02:37:17;;;;;;;11.77;9.50;;;;;;;10.26;68.73;102475.22;5056649;28;20021;-53
2022/05/01 02:39:42;;;;;;;12.13;8.68;;;;;;;10.24;68.73;102469.09;5059882;28;20589;-51
2022/05/01 02:42:08;;;;;;;13.85;9.60;;;;;;;10.26;68.60;102470.97;5060494;28;20140;-55
2022/05/01 02:44:33;;;;;;;12.38;9.55;;;;;;;10.31;68.70;102466.06;5060868;28;20036;-49
2022/05/01 02:46:59;;;;;;;16.23;10.05;;;;;;;10.27;69.05;102469.28;5054582;28;20060;-51
2022/05/01 02:49:24;;;;;;;15.98;10.13;;;;;;;10.20;69.14;102462.88;5057177;28;20067;-52
2022/05/01 02:51:52;;;;;;;11.95;8.95;;;;;;;10.23;69.26;102460.50;5057179;28;20027;-48
2022/05/01 02:54:18;;;;;;;13.50;9.65;;;;;;;10.26;69.32;102472.66;5059552;28;20036;-53
2022/05/01 02:56:43;;;;;;;16.38;10.32;;;;;;;10.20;69.44;102468.03;5057614;28;20040;-50
2022/05/01 02:59:09;;;;;;;14.13;9.98;;;;;;;10.16;69.42;102461.81;5060683;28;20033;-49
2022/05/01 03:01:38;;;;;;;11.77;8.98;;;;;;;10.23;69.35;102465.63;5053532;28;20115;-52
2022/05/01 03:04:04;;;;;;;16.38;10.25;;;;;;;10.18;69.31;102465.34;5059481;28;20148;-54
2022/05/01 03:06:29;;;;;;;14.43;10.07;;;;;;;10.16;69.63;102471.22;5060809;28;20078;-55
2022/05/01 03:08:55;;;;;;;13.88;10.15;;;;;;;10.14;69.63;102468.56;5056506;28;20045;-51
2022/05/01 03:11:21;;;;;;;13.25;9.82;;;;;;;10.10;69.76;102465.75;5058633;28;20032;-55
2022/05/01 03:13:47;;;;;;;14.93;10.15;;;;;;;10.09;69.96;102463.97;5051216;28;20599;-50
2022/05/01 03:16:12;;;;;;;16.02;11.00;;;;;;;10.02;70.00;102467.00;5052032;28;20481;-50
2022/05/01 03:24:06;;;;;;;13.35;10.07;;;;;;;9.99;70.38;102457.44;5059678;28;20115;-51
2022/05/01 03:26:32;;;;;;;13.32;10.55;;;;;;;9.98;70.31;102455.66;5057268;28;20058;-47
2022/05/01 03:28:57;;;;;;;16.02;10.93;;;;;;;9.97;70.31;102459.03;5059522;28;20035;-55
2022/05/01 03:31:23;;;;;;;14.43;10.27;;;;;;;9.92;70.75;102452.75;5059819;28;20562;-52
2022/05/01 03:33:48;;;;;;;16.48;10.75;;;;;;;9.85;70.97;102458.34;5057623;28;20037;-54
2022/05/01 03:36:14;;;;;;;15.77;10.57;;;;;;;9.82;71.23;102451.34;5057030;28;20115;-51
2022/05/01 03:38:41;;;;;;;12.70;10.38;;;;;;;9.85;71.17;102455.78;5056192;28;20476;-55
2022/05/01 03:41:12;;;;;;;15.63;10.68;;;;;;;9.79;71.41;102447.72;5060106;28;20056;-54
2022/05/01 03:43:38;;;;;;;15.23;11.23;;;;;;;9.81;71.40;102441.88;5062374;28;20089;-55
2022/05/01 03:46:06;;;;;;;14.85;10.57;;;;;;;9.83;70.85;102445.41;5068188;28;20058;-53
2022/05/01 03:48:32;;;;;;;13.43;10.83;;;;;;;9.82;70.98;102446.19;5060818;28;20366;-55
2022/05/01 03:51:02;;;;;;;12.27;10.55;;;;;;;9.75;71.17;102435.50;5064041;28;20052;-55
2022/05/01 03:53:27;;;;;;;14.02;10.73;;;;;;;9.73;71.26;102443.13;5059525;28;20496;-47
2022/05/01 03:55:52;;;;;;;16.35;11.15;;;;;;;9.68;71.42;102448.00;5063450;28;20032;-54
2022/05/01 03:58:19;;;;;;;15.50;11.23;;;;;;;9.68;71.27;102448.00;5060192;28;20420;-55
2022/05/01 04:00:44;;;;;;;17.95;11.80;;;;;;;9.62;71.60;102445.06;5060523;28;21289;-55
2022/05/01 04:03:19;;;;;;;17.08;12.40;;;;;;;9.65;71.50;102452.97;5061040;28;20115;-48
2022/05/01 04:05:45;;;;;;;16.58;12.82;;;;;;;9.55;71.80;102444.66;5062369;28;20028;-52
2022/05/01 04:08:11;;;;;;;16.33;12.35;;;;;;;9.51;72.07;102445.25;5063504;28;20033;-48
2022/05/01 04:10:41;;;;;;;18.02;13.48;;;;;;;9.57;72.00;102445.59;5060042;28;20503;-54
2022/05/01 04:13:07;;;;;;;16.13;13.48;;;;;;;9.50;72.04;102446.94;5064736;28;20487;-54
2022/05/01 04:15:33;;;;;;;20.00;13.55;;;;;;;9.48;71.79;102450.22;5061796;28;20129;-55
2022/05/01 04:17:59;;;;;;;19.70;13.27;;;;;;;9.48;71.90;102450.22;5058468;28;20074;-55
2022/05/01 04:20:25;;;;;;;19.10;13.38;;;;;;;9.43;72.19;102449.97;5064163;28;20111;-54
2022/05/01 04:22:51;;;;;;;20.65;14.00;;;;;;;9.38;72.36;102449.69;5065784;28;20495;-55
2022/05/01 04:25:21;;;;;;;19.67;14.73;;;;;;;9.37;72.43;102444.47;5061758;28;20089;-54
2022/05/01 04:27:52;;;;;;;20.10;14.48;;;;;;;9.36;72.45;102455.53;5061273;28;20032;-55
2022/05/01 04:30:19;;;;;;;19.17;14.48;;;;;;;9.30;72.65;102447.47;5060219;28;20032;-52
2022/05/01 04:33:02;;;;;;;20.58;14.63;;;;;;;9.29;72.92;102448.28;5065742;28;20627;-52
2022/05/01 04:35:43;;;;;;;19.38;14.75;;;;;;;9.23;72.95;102442.78;5063079;28;20024;-50
2022/05/01 04:38:15;;;;;;;21.08;15.10;;;;;;;9.23;73.04;102445.34;5060423;28;20997;-50
2022/05/01 04:40:43;;;;;;;19.80;15.07;;;;;;;9.14;73.21;102449.13;5056908;28;20041;-55
2022/05/01 04:43:17;;;;;;;22.17;15.07;;;;;;;9.14;73.47;102453.38;5062715;28;20088;-52
2022/05/01 04:45:43;;;;;;;19.33;16.02;;;;;;;9.11;73.58;102448.09;5060667;28;20778;-55
2022/05/01 04:48:10;;;;;;;21.95;15.75;;;;;;;9.16;73.64;102451.81;5059656;28;20029;-54
2022/05/01 04:50:36;;;;;;;21.48;15.13;;;;;;;9.05;73.83;102447.72;5056368;28;20028;-52
2022/05/01 04:53:07;;;;;;;22.58;16.23;;;;;;;9.10;74.21;102447.19;5061679;28;20034;-54
2022/05/01 04:55:33;;;;;;;22.08;16.75;;;;;;;9.03;74.00;102454.41;5059797;28;20024;-53
2022/05/01 04:57:59;;;;;;;21.58;16.70;;;;;;;8.99;74.23;102448.25;5060360;28;20032;-52
2022/05/01 05:00:26;;;;;;;25.55;16.88;;;;;;;8.95;74.44;102455.66;5060410;28;20036;-55
2022/05/01 05:02:53;;;;;;;23.00;15.93;;;;;;;9.00;74.38;102455.13;5058283;28;20499;-54
2022/05/01 05:05:20;;;;;;;20.23;16.42;;;;;;;9.04;74.23;102461.31;5061982;28;20032;-54
2022/05/01 05:07:46;;;;;;;25.40;16.92;;;;;;;9.00;74.05;102460.28;5059631;28;20036;-50
2022/05/01 05:10:12;;;;;;;19.52;15.95;;;;;;;9.02;74.68;102462.91;5063092;28;20059;-54
2022/05/01 05:12:39;;;;;;;22.88;16.77;;;;;;;8.94;74.58;102459.91;5059588;28;20155;-55
2022/05/01 05:15:09;;;;;;;22.75;16.90;;;;;;;8.93;74.82;102462.38;5057742;28;20024;-55
2022/05/01 05:17:34;;;;;;;;;;;;;;;9.20;73.09;102465.69;5059849;28;20032;-54
2022/05/01 05:20:00;;;;;;;23.50;16.85;;;;;;;9.00;75.11;102462.84;5056895;28;19920;-50
2022/05/01 05:22:26;;;;;;;22.52;16.40;;;;;;;8.93;74.86;102465.84;5060113;28;20024;-48
2022/05/01 05:24:51;;;;;;;21.52;16.45;;;;;;;8.92;74.92;102466.63;5063103;28;20024;-55
2022/05/01 05:27:20;;;;;;;20.60;16.38;;;;;;;8.91;75.29;102463.94;5062851;28;20039;-51
2022/05/01 05:29:46;;;;;;;23.52;17.42;;;;;;;8.91;75.08;102464.84;5056534;28;20067;-54
2022/05/01 05:32:12;;;;;;;22.55;16.77;;;;;;;8.89;75.18;102471.56;5060451;28;20208;-54
2022/05/01 05:34:37;;;;;;;22.35;16.67;;;;;;;8.96;74.98;102477.94;5059192;28;20029;-55
2022/05/01 05:37:03;;;;;;;22.00;16.85;;;;;;;8.96;75.28;102481.41;5060031;28;20028;-50
2022/05/01 05:39:28;;;;;;;25.25;17.88;;;;;;;8.92;75.23;102482.03;5058293;28;20040;-50
2022/05/01 05:41:54;;;;;;;24.80;17.40;;;;;;;8.91;75.47;102480.22;5058413;28;20426;-54
2022/05/01 05:44:19;;;;;;;24.67;16.98;;;;;;;8.95;75.45;102486.44;5058055;28;20044;-55
2022/05/01 05:46:45;;;;;;;24.33;17.75;;;;;;;8.90;75.23;102483.59;5059185;28;20041;-52
2022/05/01 05:49:10;;;;;;;25.48;17.52;;;;;;;9.00;75.67;102480.78;5057891;28;20490;-54
2022/05/01 05:51:35;;;;;;;22.52;17.13;;;;;;;9.06;75.58;102482.84;5059605;28;20032;-53
2022/05/01 05:54:01;;;;;;;25.52;17.65;;;;;;;9.04;75.34;102481.84;5059982;28;20029;-52
2022/05/01 05:56:26;;;;;;;25.27;17.83;;;;;;;9.12;75.24;102491.78;5058995;28;20430;-52
2022/05/01 05:58:52;;;;;;;23.23;16.83;;;;;;;9.21;75.23;102494.00;5055800;28;20073;-55
2022/05/01 06:01:17;;;;;;;24.38;17.80;;;;;;;9.26;75.34;102496.84;5052676;28;20516;-54
2022/05/01 06:03:43;;;;;;;23.90;17.60;;;;;;;9.24;75.47;102490.75;5062466;28;20036;-55
2022/05/01 06:06:09;;;;;;;24.85;17.05;;;;;;;9.32;75.18;102495.53;5061340;28;20028;-54
2022/05/01 06:08:38;;;;;;;26.20;18.27;;;;;;;9.32;75.49;102499.78;5059198;28;20361;-55
2022/05/01 06:11:04;;;;;;;22.33;17.27;;;;;;;9.38;75.34;102497.59;5060754;28;20033;-55
2022/05/01 06:13:29;;;;;;;23.30;17.23;;;;;;;9.43;75.20;102496.19;5057235;28;20028;-55
2022/05/01 06:15:55;;;;;;;24.90;18.13;;;;;;;9.48;75.73;102501.59;5057083;28;20032;-53
2022/05/01 06:18:20;;;;;;;25.63;18.55;;;;;;;9.50;75.23;102498.31;5063076;28;20107;-53
2022/05/01 06:20:45;;;;;;;23.80;18.08;;;;;;;9.52;75.10;102500.94;5061231;28;20081;-54
2022/05/01 06:23:11;;;;;;;22.50;17.23;;;;;;;9.55;75.65;102504.59;5061520;28;20031;-53
2022/05/01 06:25:43;;;;;;;23.92;18.20;;;;;;;9.58;75.42;102504.75;5055773;28;20086;-54
2022/05/01 06:28:11;;;;;;;22.95;17.13;;;;;;;9.63;75.57;102498.22;5061721;28;20056;-54
2022/05/01 06:30:43;;;;;;;23.42;17.20;;;;;;;9.69;75.42;102505.38;5059096;28;20490;-53
2022/05/01 06:33:10;;;;;;;22.98;17.48;;;;;;;9.73;75.29;102506.47;5054420;28;20037;-55
2022/05/01 06:35:37;;;;;;;22.20;16.33;;;;;;;9.79;74.98;102506.81;5057068;28;20396;-55
2022/05/01 06:38:02;;;;;;;23.27;16.77;;;;;;;9.88;75.10;102505.63;5055127;28;20470;-52
2022/05/01 06:40:28;;;;;;;24.17;17.63;;;;;;;9.96;74.75;102506.09;5057099;28;20039;-52
2022/05/01 06:42:54;;;;;;;23.75;17.40;;;;;;;10.03;74.17;102499.63;5059735;28;20107;-50
2022/05/01 06:45:20;;;;;;;23.20;16.63;;;;;;;10.01;74.40;102498.63;5055254;28;20500;-55
2022/05/01 06:47:45;;;;;;;23.08;16.92;;;;;;;10.09;74.50;102505.97;5058513;28;20033;-50
2022/05/01 06:50:10;;;;;;;21.38;16.67;;;;;;;10.14;74.55;102508.81;5057776;28;20137;-55
2022/05/01 06:52:36;;;;;;;23.90;17.15;;;;;;;10.13;74.18;102512.16;5061026;28;20028;-51
2022/05/01 06:55:01;;;;;;;26.08;17.50;;;;;;;10.20;74.47;102519.44;5059564;28;20032;-55
2022/05/01 06:57:27;;;;;;;22.50;17.33;;;;;;;10.19;74.58;102518.56;5058992;28;20025;-50
2022/05/01 06:59:52;;;;;;;21.20;17.35;;;;;;;10.21;74.32;102506.66;5060337;28;20039;-50
2022/05/01 07:02:18;;;;;;;24.60;17.38;;;;;;;10.27;74.35;102503.59;5066357;28;20037;-48
2022/05/01 07:04:44;;;;;;;23.05;16.88;;;;;;;10.33;74.60;102506.50;5057502;28;20028;-55
2022/05/01 07:07:09;;;;;;;23.15;16.95;;;;;;;10.37;74.72;102495.56;5060499;28;20392;-55
2022/05/01 07:09:35;;;;;;;24.42;17.48;;;;;;;10.38;74.26;102506.75;5055063;28;20117;-55
2022/05/01 07:12:00;;;;;;;22.98;16.70;;;;;;;10.46;73.58;102500.34;5058790;28;20035;-50
2022/05/01 07:14:26;;;;;;;26.30;16.38;;;;;;;10.53;73.91;102501.56;5053040;28;20032;-55
2022/05/01 07:16:51;;;;;;;22.08;16.30;;;;;;;10.61;74.24;102503.72;5058716;28;20040;-55
2022/05/01 07:19:16;;;;;;;23.20;16.65;;;;;;;10.66;73.54;102499.72;5060981;28;20111;-48
2022/05/01 07:21:42;;;;;;;21.83;16.20;;;;;;;10.77;73.27;102502.88;5055430;28;20039;-56
2022/05/01 07:24:07;;;;;;;21.45;16.30;;;;;;;10.84;72.59;102509.22;5053138;28;20484;-52
2022/05/01 07:26:33;;;;;;;23.10;15.88;;;;;;;10.87;72.65;102509.41;5055133;28;20481;-53
2022/05/01 07:29:00;;;;;;;19.60;15.88;;;;;;;10.90;72.37;102497.56;5060314;28;20035;-56
2022/05/01 07:31:26;;;;;;;23.35;16.42;;;;;;;10.96;71.81;102503.03;5056789;28;20447;-55
2022/05/01 07:33:51;;;;;;;20.60;15.75;;;;;;;11.00;71.32;102501.50;5058155;28;20155;-55
2022/05/01 07:36:19;;;;;;;19.45;15.45;;;;;;;11.07;71.33;102503.59;5059450;28;20040;-54
2022/05/01 07:38:44;;;;;;;21.27;15.73;;;;;;;11.16;70.93;102504.09;5060360;28;20033;-53
2022/05/01 07:41:09;;;;;;;23.10;15.63;;;;;;;11.21;70.24;102501.72;5057160;28;20045;-56
2022/05/01 07:43:35;;;;;;;23.23;15.30;;;;;;;11.23;70.29;102503.59;5054380;28;20080;-53
2022/05/01 07:46:01;;;;;;;25.77;15.50;;;;;;;11.24;69.57;102509.63;5058360;28;20039;-50
2022/05/01 07:48:27;;;;;;;18.38;14.85;;;;;;;11.30;69.84;102504.78;5055425;28;20062;-51
2022/05/01 07:50:52;;;;;;;19.55;15.48;;;;;;;11.34;69.61;102505.81;5060991;28;20032;-52
2022/05/01 07:53:18;;;;;;;17.98;15.10;;;;;;;11.35;68.80;102498.19;5041502;28;20068;-55
2022/05/01 07:55:43;;;;;;;21.88;14.77;;;;;;;11.39;68.61;102504.34;5064404;28;20725;-55
2022/05/01 07:58:09;;;;;;;20.88;14.35;;;;;;;11.49;68.80;102509.19;5058528;28;20079;-47
2022/05/01 08:00:34;;;;;;;19.73;14.13;;;;;;;11.50;68.27;102504.09;5051222;28;20043;-55
2022/05/01 08:05:43;;;;;;;18.17;13.93;;;;;;;11.62;67.85;102498.69;5054728;28;20097;-54
2022/05/01 08:08:09;;;;;;;22.20;14.00;;;;;;;11.72;67.75;102498.34;5059209;28;20032;-55
2022/05/01 08:10:34;;;;;;;15.20;12.30;;;;;;;11.78;66.15;102497.75;5050297;28;20772;-55
2022/05/01 08:12:59;;;;;;;17.25;12.73;;;;;;;11.89;66.39;102500.88;5058786;28;20115;-50
2022/05/01 08:15:26;;;;;;;21.10;13.15;;;;;;;11.92;65.99;102498.44;5056421;28;20036;-49
2022/05/01 08:17:51;;;;;;;18.65;13.48;;;;;;;12.03;66.52;102493.00;5059232;28;20384;-56
2022/05/01 08:23:20;;;;;;;17.20;12.63;;;;;;;12.25;65.63;102504.31;5019283;28;20041;-54
2022/05/01 08:25:46;;;;;;;18.73;13.20;;;;;;;12.35;65.05;102491.94;5002321;28;20151;-47
2022/05/01 08:28:11;;;;;;;16.00;11.30;;;;;;;12.43;64.07;102488.81;5035417;28;20552;-56
2022/05/01 08:30:37;;;;;;;16.48;11.65;;;;;;;12.55;63.17;102494.56;5058865;28;20052;-55
2022/05/01 08:33:04;;;;;;;14.00;10.45;;;;;;;12.60;62.17;102493.06;5057717;28;20144;-54
2022/05/01 08:35:29;;;;;;;13.88;10.38;;;;;;;12.72;61.77;102485.00;5057595;28;20384;-54
2022/05/01 08:37:55;;;;;;;15.23;10.25;;;;;;;12.82;60.18;102485.50;5060038;28;20029;-54
2022/05/01 08:40:21;;;;;;;13.20;9.52;;;;;;;12.91;59.87;102486.69;5057812;28;20032;-52
2022/05/01 08:42:50;;;;;;;13.38;9.30;;;;;;;13.04;57.71;102481.25;5056550;28;20598;-54
2022/05/01 08:45:20;;;;;;;17.33;9.50;;;;;;;13.22;57.96;102479.50;5060767;28;20085;-55
2022/05/01 08:48:07;;;;;;;13.70;9.75;;;;;;;13.30;58.81;102480.72;5063423;28;20031;-51
2022/05/01 08:50:38;;;;;;;13.43;8.32;;;;;;;13.25;58.94;102482.22;5053823;28;20028;-56
2022/05/01 08:53:06;;;;;;;11.77;6.88;;;;;;;13.08;54.51;102488.34;5058738;28;20075;-54
2022/05/01 08:55:31;;;;;;;8.32;6.30;;;;;;;13.00;53.27;102477.69;5055759;28;20472;-57
2022/05/01 08:57:59;;;;;;;9.70;6.57;;;;;;;12.97;53.42;102482.69;5061623;28;20036;-57
2022/05/01 09:00:26;;;;;;;10.13;7.32;;;;;;;12.97;53.56;102479.22;5054714;28;20029;-57
2022/05/01 09:02:52;;;;;;;8.48;7.03;;;;;;;12.93;54.35;102482.50;5056929;28;20032;-57
2022/05/01 09:05:18;;;;;;;9.82;6.35;;;;;;;12.96;53.69;102477.47;5058901;28;20032;-57
2022/05/01 09:07:43;;;;;;;8.40;5.72;;;;;;;12.99;53.44;102472.44;5057217;28;20395;-57
2022/05/01 09:10:09;;;;;;;10.35;6.15;;;;;;;13.03;52.78;102479.50;5057733;28;20037;-55
2022/05/01 09:12:52;;;;;;;9.23;6.30;;;;;;;13.04;51.85;102481.25;5056128;28;20044;-53
2022/05/01 09:15:35;;;;;;;8.90;5.30;;;;;;;13.10;50.96;102473.78;5057398;28;20535;-51
2022/05/01 09:18:03;;;;;;;6.63;5.10;;;;;;;13.15;49.49;102475.75;5052409;28;20729;-53
2022/05/01 09:20:29;;;;;;;6.00;4.80;;;;;;;13.39;49.17;102475.06;5056249;28;20032;-57
2022/05/01 09:22:56;;;;;;;8.02;5.22;;;;;;;13.45;48.48;102477.91;5054776;28;20024;-54
2022/05/01 09:25:22;;;;;;;8.20;5.88;;;;;;;13.53;49.63;102470.47;5054687;28;20766;-49
2022/05/01 09:27:49;;;;;;;7.07;5.25;;;;;;;13.53;49.33;102476.53;5056259;28;20397;-56
2022/05/01 09:30:16;;;;;;;6.95;5.60;;;;;;;13.53;49.25;102473.03;5058881;28;20032;-56
2022/05/01 09:32:42;;;;;;;8.65;6.15;;;;;;;13.55;49.98;102476.59;5058313;28;20540;-55
2022/05/01 09:35:13;;;;;;;8.88;6.00;;;;;;;13.57;48.81;102478.41;5053661;28;20575;-49
2022/05/01 09:37:39;;;;;;;8.77;5.68;;;;;;;13.54;48.91;102474.84;5055987;28;20024;-56
2022/05/01 09:40:05;;;;;;;8.13;5.60;;;;;;;13.52;48.47;102476.44;5058005;28;20028;-56
2022/05/01 09:42:35;;;;;;;9.80;6.45;;;;;;;13.55;49.19;102481.75;5064374;28;20437;-56
2022/05/01 09:45:17;;;;;;;7.40;5.38;;;;;;;13.51;47.54;102475.56;5060728;28;20028;-54
2022/05/01 09:47:44;;;;;;;8.32;5.15;;;;;;;13.53;47.88;102475.63;5060274;28;20024;-56
2022/05/01 09:50:11;;;;;;;6.03;5.00;;;;;;;13.56;47.93;102474.06;5059369;28;20078;-56
2022/05/01 09:52:54;;;;;;;7.55;5.22;;;;;;;13.66;48.67;102480.50;5058028;28;20059;-56
2022/05/01 09:55:19;;;;;;;9.07;5.50;;;;;;;13.66;48.27;102472.75;5057869;28;20020;-54
2022/05/01 09:57:45;;;;;;;6.93;5.15;;;;;;;13.69;48.29;102478.03;5054795;28;20047;-56
2022/05/01 10:00:11;;;;;;;7.65;5.18;;;;;;;13.71;47.36;102476.41;5057797;28;20141;-53
2022/05/01 10:02:36;;;;;;;7.63;4.93;;;;;;;13.74;46.93;102479.09;5049061;28;20033;-55
2022/05/01 10:05:06;;;;;;;8.55;5.55;;;;;;;13.73;47.27;102479.94;5053407;28;20470;-51
2022/05/01 10:07:39;;;;;;;9.38;5.28;;;;;;;13.80;47.19;102479.34;5049626;28;20044;-50
2022/05/01 10:10:10;;;;;;;7.55;4.95;;;;;;;13.75;44.91;102473.13;5056055;28;20548;-56
2022/05/01 10:12:43;;;;;;;7.50;4.90;;;;;;;13.74;44.33;102473.94;5055623;28;20037;-51
2022/05/01 10:15:10;;;;;;;7.38;4.82;;;;;;;13.75;44.71;102467.06;5053373;28;20032;-51
2022/05/01 10:17:37;;;;;;;6.88;5.35;;;;;;;13.79;44.62;102471.56;5057826;28;20544;-56
2022/05/01 10:20:03;;;;;;;6.30;5.10;;;;;;;13.93;45.47;102473.84;5052830;28;20497;-53
2022/05/01 10:22:31;;;;;;;8.90;5.75;;;;;;;14.14;45.70;102465.19;5049382;28;20124;-55
2022/05/01 10:24:56;;;;;;;7.55;4.75;;;;;;;14.25;43.82;102468.16;5055915;28;20400;-50
2022/05/01 10:27:24;;;;;;;9.50;5.47;;;;;;;14.35;44.10;102466.00;5055345;28;20517;-53
2022/05/01 10:33:09;;;;;;;7.28;4.82;;;;;;;14.56;43.05;102462.47;5054825;28;20138;-51
2022/05/01 10:36:03;;;;;;;6.43;5.10;;;;;;;14.53;42.56;102457.22;5059222;28;20043;-56
2022/05/01 10:38:54;;;;;;;8.85;5.30;;;;;;;14.53;42.65;102452.91;5057558;28;20024;-55
2022/05/01 10:41:21;;;;;;;9.60;5.55;;;;;;;14.35;42.48;102455.66;5057643;28;20127;-56
2022/05/01 10:43:58;;;;;;;7.97;5.60;;;;;;;14.36;43.88;102447.06;5051666;28;20482;-49
2022/05/01 10:46:29;;;;;;;8.05;5.40;;;;;;;14.48;45.14;102439.78;5053927;28;20041;-56
2022/05/01 10:48:59;;;;;;;9.18;5.20;;;;;;;14.39;42.17;102447.19;5053846;28;20032;-56
2022/05/01 10:51:30;;;;;;;;;;;;;;;14.55;44.14;102442.59;5057290;28;20032;-56
2022/05/01 10:54:17;;;;;;;9.35;5.60;;;;;;;14.49;43.27;102440.66;5055553;28;19962;-54
2022/05/01 10:56:51;;;;;;;7.35;5.18;;;;;;;14.48;43.35;102432.03;5056129;28;20563;-52
2022/05/01 10:59:35;;;;;;;9.18;5.07;;;;;;;14.60;44.44;102426.41;5058620;28;20040;-50
2022/05/01 11:02:19;;;;;;;9.48;4.88;;;;;;;14.65;43.01;102432.66;5053860;28;20028;-51
2022/05/01 11:04:45;;;;;;;7.10;5.28;;;;;;;14.62;43.22;102429.97;5058411;28;20032;-56
2022/05/01 11:07:13;;;;;;;6.25;5.45;;;;;;;14.71;44.35;102419.94;5054944;28;20033;-56
2022/05/01 11:09:41;;;;;;;6.55;5.13;;;;;;;14.77;42.88;102419.25;5053471;28;20408;-57
2022/05/01 11:12:08;;;;;;;7.70;5.15;;;;;;;14.81;43.34;102417.69;5050359;28;20040;-53
2022/05/01 11:14:43;;;;;;;7.60;5.53;;;;;;;14.97;43.38;102410.47;5053505;28;20852;-57
2022/05/01 11:17:09;;;;;;;8.13;5.25;;;;;;;14.97;42.94;102417.38;5056538;28;20040;-52
2022/05/01 11:19:53;;;;;;;7.55;5.63;;;;;;;15.05;42.02;102413.34;5053867;28;20040;-54
2022/05/01 11:22:26;;;;;;;7.43;5.55;;;;;;;15.06;42.41;102414.22;5057508;28;20025;-55
2022/05/01 11:24:51;;;;;;;7.47;5.53;;;;;;;14.99;41.81;102411.44;5053765;28;20043;-51
2022/05/01 11:27:18;;;;;;;6.60;5.40;;;;;;;14.87;40.84;102408.41;5050217;28;20052;-59
2022/05/01 11:30:22;;;;;;;6.68;5.93;;;;;;;14.82;42.01;102409.94;5050910;28;20492;-57
2022/05/01 11:33:00;;;;;;;6.50;5.40;;;;;;;14.72;42.59;102403.56;5056199;28;20108;-56
2022/05/01 11:35:56;;;;;;;8.82;5.20;;;;;;;14.73;43.10;102399.25;5054090;28;20436;-57
2022/05/01 11:38:31;;;;;;;7.28;5.30;;;;;;;14.71;42.68;102404.38;5055349;28;20553;-53
2022/05/01 11:41:00;;;;;;;6.97;5.28;;;;;;;14.67;43.28;102391.28;5057357;28;20043;-56
2022/05/01 11:43:28;;;;;;;;;;;;;;;14.85;42.69;102396.22;5058122;28;20376;-57